Saratoga Springs, NY

5:52 AM EDT on November 01, 2014 (GMT -0400)
KNYSARAT7 | Change Station
CLOSE
Current Station
Personal Weather Station
Location: SARATOGA SPRINGS, NY
Elevation: 309 ft
Nearby Weather Stations

Elev 309 ft 43.06 °N, 73.78 °W | Updated 1 second ago

Mostly Cloudy
Mostly Cloudy
39.1 °F
Feels Like 39 °F
N
2.0
Wind Variable Wind from NNE
Gusts 8.0 mph

Today
High -- | Low -- °F
--% Chance of Precip.
Yesterday
High -- | Low -- °F
Precip. -- in
7:29 AM 5:47 PM
Waxing Gibbous, 65% visible
Pressure 29.99 in
Visibility 10.0 miles
Clouds Clear
Windchill 39 °F
Dew Point 30 °F
Humidity 71%
Rainfall 0.00 in
Snow Depth Not available.
UV 0 out of 12
Pollen .10 out of 12
Air Quality Not available.
Flu Activity Not available.
METAR KGFL 010853Z AUTO 04006KT 10SM CLR 03/M01 A2997 RMK AO2 SLP155 T00331011 55004

More Conditions Fewer Conditions

Pressure 29.99 in
Visibility 10.0 miles
Clouds Clear
Windchill 39 °F
Dew Point 30 °F
Humidity 71%
Rainfall 0.00 in
Snow Depth Not available.
UV 0 out of 12
Pollen .10 out of 12
Air Quality Not available.
Flu Activity Not available.
METAR KGFL 010853Z AUTO 04006KT 10SM CLR 03/M01 A2997 RMK AO2 SLP155 T00331011 55004

More Conditions Fewer Conditions

10-Day Weather Forecast

Almanac

Astronomy

Nov. 01, 2014 Rise Set
Actual Time
Civil Twilight
Nautical Twilight
Astronomical Twilight
Moon
Length of Visible Light
Length of Day
Tomorrow will be .
, % of the Moon is Illuminated

Today's Extremes

State Highs State Lows

Community

WunderPhotos

Upload Photos

1,766,872 photos uploaded!

WunderBlogs® & News

Nearby

Air Quality

  Air Quality AQ Index Pollutant
Not available.

Snow Depth

Station Depth Elevation

Earthquake Activity

City Distance Mag. Time & Date
Minimum magnitude displayed is 2.5.

Coastal Water Temperatures

Place Temperature

Nearby Weather Stations